createdAt,value
2022-11-24T00:01:13.512Z,1.45
2022-11-24T00:03:43.931Z,1.40
2022-11-24T00:06:17.150Z,0.90
2022-11-24T00:08:53.878Z,2.03
2022-11-24T00:11:29.781Z,1.35
2022-11-24T00:14:01.061Z,4.38
2022-11-24T00:16:36.986Z,0.95
2022-11-24T00:19:17.038Z,3.67
2022-11-24T00:21:49.897Z,2.50
2022-11-24T00:24:20.360Z,1.95
2022-11-24T00:26:50.866Z,1.75
2022-11-24T00:29:21.326Z,1.80
2022-11-24T00:31:51.770Z,0.65
2022-11-24T00:34:22.456Z,1.55
2022-11-24T00:36:52.660Z,1.20
2022-11-24T00:39:22.889Z,3.03
2022-11-24T00:41:53.834Z,1.55
2022-11-24T00:44:24.079Z,2.13
2022-11-24T00:46:54.451Z,0.93
2022-11-24T00:49:24.690Z,1.58
2022-11-24T00:51:54.976Z,1.55
2022-11-24T00:54:25.404Z,2.03
2022-11-24T00:56:55.635Z,3.53
2022-11-24T00:59:25.908Z,6.95
2022-11-24T01:01:56.240Z,1.45
2022-11-24T01:04:26.673Z,1.23
2022-11-24T01:06:56.876Z,8.02
2022-11-24T01:09:27.218Z,2.25
2022-11-24T01:12:03.363Z,1.38
2022-11-24T01:14:35.019Z,2.10
2022-11-24T01:17:05.861Z,4.45
2022-11-24T01:19:36.156Z,0.93
2022-11-24T01:22:06.732Z,4.32
2022-11-24T01:24:36.927Z,3.72
2022-11-24T01:27:07.123Z,3.85
2022-11-24T01:29:37.486Z,2.05
2022-11-24T01:32:07.901Z,2.85
2022-11-24T01:34:38.141Z,2.08
2022-11-24T01:37:08.336Z,4.72
2022-11-24T01:39:38.596Z,0.73
2022-11-24T01:42:11.982Z,3.30
2022-11-24T01:44:44.143Z,2.03
2022-11-24T01:47:30.256Z,2.15
2022-11-24T01:50:03.819Z,0.47
2022-11-24T01:52:45.562Z,0.65
2022-11-24T01:55:23.749Z,3.72
2022-11-24T01:58:00.704Z,0.52
2022-11-24T02:00:31.216Z,4.47
2022-11-24T02:03:01.866Z,6.93
2022-11-24T02:05:32.552Z,2.88
2022-11-24T02:08:04.332Z,3.63
2022-11-24T02:10:35.400Z,0.22
2022-11-24T02:13:06.213Z,1.95
2022-11-24T02:15:38.014Z,1.65
2022-11-24T02:18:08.332Z,3.60
2022-11-24T02:20:39.864Z,3.20
2022-11-24T02:23:22.248Z,2.58
2022-11-24T02:26:16.178Z,1.80
2022-11-24T02:28:46.563Z,2.92
2022-11-24T02:31:17.220Z,1.98
2022-11-24T02:33:48.229Z,1.20
2022-11-24T02:36:18.953Z,0.82
2022-11-24T02:38:52.182Z,2.78
2022-11-24T02:41:26.418Z,1.38
2022-11-24T02:44:00.770Z,1.17
2022-11-24T02:46:31.112Z,0.63
2022-11-24T02:49:01.463Z,2.47
2022-11-24T02:51:31.743Z,2.50
2022-11-24T02:54:02.286Z,1.00
2022-11-24T02:56:32.669Z,0.60
2022-11-24T02:59:02.854Z,0.60
2022-11-24T03:01:33.660Z,0.45
2022-11-24T03:04:03.975Z,0.90
2022-11-24T03:06:34.288Z,3.72
2022-11-24T03:09:04.685Z,2.58
2022-11-24T03:11:35.600Z,2.83
2022-11-24T03:14:06.375Z,1.00
2022-11-24T03:16:36.767Z,3.55
2022-11-24T03:19:07.748Z,4.38
2022-11-24T03:21:39.714Z,0.20
2022-11-24T03:24:09.928Z,1.95
2022-11-24T03:26:40.306Z,2.85
2022-11-24T03:29:11.060Z,2.60
2022-11-24T03:31:41.445Z,2.22
2022-11-24T03:34:12.064Z,3.42
2022-11-24T03:36:42.414Z,7.47
2022-11-24T03:39:12.852Z,0.88
2022-11-24T03:41:43.367Z,3.20
2022-11-24T03:44:13.680Z,4.07
2022-11-24T03:46:44.003Z,2.10
2022-11-24T03:49:14.378Z,0.77
2022-11-24T03:51:44.623Z,4.03
2022-11-24T03:54:14.879Z,0.52
2022-11-24T03:56:45.211Z,1.27
2022-11-24T03:59:15.568Z,0.35
2022-11-24T04:01:45.819Z,1.58
2022-11-24T04:04:16.514Z,1.30
2022-11-24T04:06:46.702Z,2.45
2022-11-24T04:09:16.991Z,0.88
2022-11-24T04:12:05.013Z,0.70
2022-11-24T04:14:35.854Z,2.33
2022-11-24T04:17:06.948Z,2.72
2022-11-24T04:19:37.539Z,2.53
2022-11-24T04:22:07.866Z,3.10
2022-11-24T04:24:38.115Z,0.75
2022-11-24T04:27:08.276Z,1.52
2022-11-24T04:29:38.556Z,0.60
2022-11-24T04:32:08.909Z,1.98
2022-11-24T04:34:39.547Z,1.75
2022-11-24T04:37:09.728Z,1.65
2022-11-24T04:39:40.002Z,2.17
2022-11-24T04:42:10.235Z,1.17
2022-11-24T04:44:40.601Z,2.60
2022-11-24T04:47:14.907Z,0.52
2022-11-24T04:49:45.184Z,0.43
2022-11-24T04:52:18.582Z,0.35
2022-11-24T04:54:49.667Z,1.65
2022-11-24T04:57:22.112Z,0.63
2022-11-24T04:59:54.325Z,2.53
2022-11-24T05:02:25.613Z,1.95
2022-11-24T05:04:55.828Z,2.92
2022-11-24T05:07:26.112Z,1.00
2022-11-24T05:10:14.617Z,1.48
2022-11-24T05:12:49.939Z,0.95
2022-11-24T05:15:21.535Z,2.95
2022-11-24T05:17:51.718Z,2.03
2022-11-24T05:20:22.437Z,1.73
2022-11-24T05:22:52.825Z,1.05
2022-11-24T05:25:23.143Z,0.65
2022-11-24T05:27:53.538Z,1.88
2022-11-24T05:30:23.792Z,3.13
2022-11-24T05:32:53.959Z,1.60
2022-11-24T05:35:24.437Z,1.45
2022-11-24T05:37:54.633Z,1.98
2022-11-24T05:40:24.927Z,3.13
2022-11-24T05:42:55.176Z,3.35
2022-11-24T05:45:25.830Z,0.90
2022-11-24T05:47:56.218Z,0.70
2022-11-24T05:50:26.449Z,0.93
2022-11-24T05:52:56.685Z,0.38
2022-11-24T05:55:27.100Z,1.75
2022-11-24T05:58:09.134Z,1.27
2022-11-24T06:00:41.468Z,1.17
2022-11-24T06:03:13.765Z,2.88
2022-11-24T06:05:49.238Z,2.60
2022-11-24T06:08:31.697Z,3.65
2022-11-24T06:11:19.161Z,3.83
2022-11-24T06:13:50.568Z,1.65
2022-11-24T06:16:20.931Z,1.02
2022-11-24T06:18:51.208Z,2.22
2022-11-24T06:21:21.497Z,0.35
2022-11-24T06:23:52.329Z,3.20
2022-11-24T06:26:23.091Z,1.10
2022-11-24T06:28:53.292Z,0.35
2022-11-24T06:31:23.705Z,2.97
2022-11-24T06:33:53.901Z,2.05
2022-11-24T06:36:24.159Z,4.93
2022-11-24T06:38:54.638Z,2.53
2022-11-24T06:41:24.808Z,3.05
2022-11-24T06:43:54.976Z,2.88
2022-11-24T06:46:25.303Z,0.98
2022-11-24T06:48:55.560Z,4.07
2022-11-24T06:51:25.839Z,2.92
2022-11-24T06:53:56.455Z,2.67
2022-11-24T06:56:27.645Z,1.90
2022-11-24T06:58:57.997Z,4.47
2022-11-24T07:01:30.533Z,1.58
2022-11-24T07:04:01.242Z,1.40
2022-11-24T07:06:31.469Z,3.25
2022-11-24T07:09:01.631Z,0.63
2022-11-24T07:11:31.876Z,3.88
2022-11-24T07:14:02.173Z,1.13
2022-11-24T07:16:32.984Z,2.30
2022-11-24T07:19:03.906Z,3.28
2022-11-24T07:21:34.264Z,1.27
2022-11-24T07:24:04.744Z,2.75
2022-11-24T07:26:39.079Z,4.70
2022-11-24T07:29:09.350Z,1.30
2022-11-24T07:31:39.588Z,0.90
2022-11-24T07:34:09.778Z,1.40
2022-11-24T07:36:39.993Z,1.45
2022-11-24T07:39:10.524Z,3.75
2022-11-24T07:41:40.805Z,2.42
2022-11-24T07:44:11.160Z,5.20
2022-11-24T07:46:41.401Z,3.00
2022-11-24T07:49:11.661Z,6.47
2022-11-24T07:51:41.908Z,4.22
2022-11-24T07:54:12.335Z,1.58
2022-11-24T07:56:42.616Z,2.45
2022-11-24T07:59:12.816Z,3.97
2022-11-24T08:01:43.042Z,4.63
2022-11-24T08:04:13.340Z,2.15
2022-11-24T08:06:47.159Z,4.40
2022-11-24T08:09:17.654Z,4.63
2022-11-24T08:11:48.130Z,1.35
2022-11-24T08:14:18.590Z,0.88
2022-11-24T08:16:49.081Z,2.15
2022-11-24T08:19:19.545Z,1.95
2022-11-24T08:21:49.887Z,3.38
2022-11-24T08:24:20.155Z,2.10
2022-11-24T08:26:50.581Z,1.38
2022-11-24T08:29:20.869Z,1.65
2022-11-24T08:31:51.127Z,2.03
2022-11-24T08:34:21.372Z,0.88
2022-11-24T08:36:54.156Z,0.50
2022-11-24T08:39:24.501Z,1.77
2022-11-24T08:41:54.725Z,2.03
2022-11-24T08:44:25.292Z,2.17
2022-11-24T08:46:57.238Z,0.93
2022-11-24T08:49:27.477Z,1.48
2022-11-24T08:52:00.249Z,1.15
2022-11-24T08:54:30.679Z,2.00
2022-11-24T08:57:00.892Z,1.00
2022-11-24T08:59:31.242Z,1.75
2022-11-24T09:02:01.522Z,1.15
2022-11-24T09:04:31.938Z,4.32
2022-11-24T09:07:02.812Z,5.45
2022-11-24T09:09:33.491Z,2.40
2022-11-24T09:12:03.863Z,1.73
2022-11-24T09:14:34.520Z,1.60
2022-11-24T09:17:05.054Z,1.23
2022-11-24T09:19:35.815Z,2.38
2022-11-24T09:22:06.955Z,2.40
2022-11-24T09:24:37.237Z,1.77
2022-11-24T09:27:07.482Z,2.17
2022-11-24T09:29:37.775Z,1.50
2022-11-24T09:32:10.874Z,2.88
2022-11-24T09:34:41.398Z,4.32
2022-11-24T09:37:11.643Z,5.75
2022-11-24T09:39:42.002Z,6.82
2022-11-24T09:42:52.069Z,6.35
2022-11-24T09:46:04.440Z,6.55
2022-11-24T09:48:41.602Z,7.35
2022-11-24T09:51:16.900Z,7.53
2022-11-24T09:53:51.138Z,8.30
2022-11-24T09:56:34.823Z,6.43
2022-11-24T09:59:19.226Z,9.35
2022-11-24T10:01:50.740Z,8.93
2022-11-24T10:04:29.748Z,7.07
2022-11-24T10:07:15.135Z,6.75
2022-11-24T10:10:08.229Z,9.70
2022-11-24T10:13:03.454Z,12.35
2022-11-24T10:15:57.701Z,12.10
2022-11-24T10:18:37.121Z,11.52
2022-11-24T10:21:27.925Z,9.95
2022-11-24T10:24:30.169Z,8.13
2022-11-24T10:27:29.072Z,8.13
2022-11-24T10:29:59.970Z,9.23
2022-11-24T10:32:38.832Z,6.72
2022-11-24T10:35:36.997Z,11.35
2022-11-24T10:38:33.997Z,7.03
2022-11-24T10:41:14.941Z,9.45
2022-11-24T10:43:45.602Z,10.40
2022-11-24T10:46:27.272Z,8.25
2022-11-24T10:49:06.294Z,8.02
2022-11-24T10:51:58.223Z,6.60
2022-11-24T10:54:28.517Z,5.65
2022-11-24T10:56:59.831Z,7.18
2022-11-24T10:59:41.952Z,9.13
2022-11-24T11:02:41.124Z,6.75
2022-11-24T11:05:32.360Z,3.90
2022-11-24T11:08:40.982Z,7.00
2022-11-24T11:11:30.529Z,5.40
2022-11-24T11:14:04.569Z,6.40
2022-11-24T11:17:04.050Z,6.88
2022-11-24T11:19:54.176Z,7.20
2022-11-24T11:22:34.423Z,6.75
2022-11-24T11:25:14.148Z,8.35
2022-11-24T11:27:44.918Z,7.60
2022-11-24T11:36:23.043Z,8.25
2022-11-24T11:38:54.848Z,9.95
2022-11-24T11:41:46.716Z,5.32
2022-11-24T11:44:31.233Z,11.23
2022-11-24T11:47:04.182Z,4.45
2022-11-24T11:49:34.517Z,5.90
2022-11-24T11:52:29.256Z,5.75
2022-11-24T11:55:18.549Z,3.25
2022-11-24T11:58:00.763Z,4.43
2022-11-24T12:00:34.849Z,5.00
2022-11-24T12:03:38.472Z,4.30
2022-11-24T12:06:16.971Z,3.42
2022-11-24T12:09:19.962Z,6.70
2022-11-24T12:12:33.200Z,2.80
2022-11-24T12:15:33.716Z,6.20
2022-11-24T12:18:56.427Z,3.35
2022-11-24T12:21:28.476Z,3.88
2022-11-24T12:24:10.859Z,4.43
2022-11-24T12:27:01.750Z,5.60
2022-11-24T12:29:50.001Z,4.30
2022-11-24T12:32:46.643Z,5.18
2022-11-24T12:35:35.159Z,4.43
2022-11-24T12:38:32.476Z,3.22
2022-11-24T12:41:45.172Z,10.85
2022-11-24T12:44:41.417Z,2.20
2022-11-24T12:47:21.019Z,6.43
2022-11-24T12:50:04.718Z,4.47
2022-11-24T12:52:42.686Z,2.90
2022-11-24T12:55:21.930Z,7.85
2022-11-24T12:58:10.831Z,5.57
2022-11-24T13:01:11.557Z,3.75
2022-11-24T13:03:59.359Z,4.30
2022-11-24T13:06:49.657Z,3.83
2022-11-24T13:09:20.609Z,3.45
2022-11-24T13:12:03.666Z,4.95
2022-11-24T13:14:38.552Z,4.05
2022-11-24T13:18:01.151Z,5.80
2022-11-24T13:20:40.077Z,4.43
2022-11-24T13:23:27.833Z,5.22
2022-11-24T13:26:29.413Z,2.53
2022-11-24T13:29:23.847Z,2.75
2022-11-24T13:32:16.159Z,4.13
2022-11-24T13:34:47.218Z,2.53
2022-11-24T13:37:42.588Z,3.03
2022-11-24T13:40:15.742Z,2.90
2022-11-24T13:43:03.314Z,2.00
2022-11-24T13:45:43.487Z,1.65
2022-11-24T13:48:22.993Z,3.70
2022-11-24T13:50:53.900Z,3.45
2022-11-24T13:53:46.096Z,2.50
2022-11-24T13:56:18.798Z,2.58
2022-11-24T13:58:55.874Z,4.00
2022-11-24T14:01:31.259Z,3.38
2022-11-24T14:04:30.651Z,3.70
2022-11-24T14:07:08.363Z,4.35
2022-11-24T14:09:49.446Z,3.58
2022-11-24T14:12:22.610Z,2.42
2022-11-24T14:14:57.245Z,3.30
2022-11-24T14:17:30.180Z,3.08
2022-11-24T14:20:01.248Z,3.70
2022-11-24T14:22:43.837Z,2.60
2022-11-24T14:25:31.884Z,3.67
2022-11-24T14:28:03.503Z,2.78
2022-11-24T14:30:33.760Z,1.58
2022-11-24T14:33:06.494Z,2.10
2022-11-24T14:35:44.330Z,2.80
2022-11-24T14:38:25.299Z,2.85
2022-11-24T14:40:57.643Z,3.30
2022-11-24T14:43:34.691Z,2.05
2022-11-24T14:46:19.686Z,2.92
2022-11-24T14:48:55.557Z,1.45
2022-11-24T14:51:35.019Z,2.83
2022-11-24T14:54:09.507Z,1.25
2022-11-24T14:56:41.533Z,1.88
2022-11-24T14:59:26.101Z,1.35
2022-11-24T15:01:57.214Z,1.55
2022-11-24T15:05:01.003Z,1.40
2022-11-24T15:07:30.637Z,1.50
2022-11-24T15:10:06.543Z,1.17
2022-11-24T15:12:44.906Z,0.70
2022-11-24T15:15:17.986Z,1.02
2022-11-24T15:18:00.181Z,1.17
2022-11-24T15:20:33.759Z,0.82
2022-11-24T15:23:18.718Z,1.95
2022-11-24T15:25:49.191Z,3.70
2022-11-24T15:28:19.521Z,1.23
2022-11-24T15:30:49.895Z,1.42
2022-11-24T15:33:21.517Z,2.63
2022-11-24T15:35:52.529Z,4.55
2022-11-24T15:38:23.067Z,1.90
2022-11-24T15:41:00.291Z,1.00
2022-11-24T15:43:43.150Z,1.67
2022-11-24T15:46:14.379Z,0.75
2022-11-24T15:48:44.717Z,1.80
2022-11-24T15:51:16.994Z,2.35
2022-11-24T15:54:00.337Z,0.40
2022-11-24T15:56:36.723Z,2.45
2022-11-24T15:59:07.283Z,1.10
2022-11-24T16:01:37.719Z,1.38
2022-11-24T16:04:09.446Z,1.20
2022-11-24T16:06:39.791Z,1.40
2022-11-24T16:09:13.270Z,1.33
2022-11-24T16:11:44.203Z,0.73
2022-11-24T16:14:14.722Z,1.02
2022-11-24T16:16:45.246Z,1.88
2022-11-24T16:19:17.517Z,0.65
2022-11-24T16:21:50.797Z,1.83
2022-11-24T16:24:21.041Z,1.42
2022-11-24T16:26:51.279Z,2.45
2022-11-24T16:29:22.668Z,0.70
2022-11-24T16:31:54.572Z,1.58
2022-11-24T16:34:25.083Z,0.30
2022-11-24T16:36:55.317Z,1.67
2022-11-24T16:39:25.510Z,1.02
2022-11-24T16:41:55.778Z,1.58
2022-11-24T16:44:25.984Z,0.80
2022-11-24T16:46:56.460Z,0.93
2022-11-24T16:49:26.658Z,0.93
2022-11-24T16:51:56.919Z,0.70
2022-11-24T16:54:27.522Z,0.40
2022-11-24T16:56:58.338Z,0.75
2022-11-24T16:59:28.673Z,0.55
2022-11-24T17:01:58.976Z,0.60
2022-11-24T17:04:29.205Z,2.45
2022-11-24T17:07:00.237Z,0.93
2022-11-24T17:09:33.007Z,0.60
2022-11-24T17:12:06.397Z,0.32
2022-11-24T17:14:37.103Z,1.75
2022-11-24T17:17:07.470Z,0.60
2022-11-24T17:19:37.775Z,1.75
2022-11-24T17:22:08.059Z,0.85
2022-11-24T17:24:38.277Z,0.77
2022-11-24T17:27:08.567Z,1.23
2022-11-24T17:29:38.906Z,1.00
2022-11-24T17:32:09.170Z,0.75
2022-11-24T17:34:39.482Z,0.50
2022-11-24T17:37:09.714Z,0.40
2022-11-24T17:39:39.930Z,0.70
2022-11-24T17:42:10.088Z,0.35
2022-11-24T17:44:40.260Z,1.95
2022-11-24T17:47:10.521Z,1.88
2022-11-24T17:49:40.824Z,1.55
2022-11-24T17:52:11.046Z,0.68
2022-11-24T17:54:48.192Z,0.88
2022-11-24T17:57:18.704Z,0.98
2022-11-24T17:59:49.053Z,2.45
2022-11-24T18:02:19.906Z,0.82
2022-11-24T18:04:50.441Z,0.73
2022-11-24T18:07:23.762Z,1.27
2022-11-24T18:09:54.169Z,0.50
2022-11-24T18:12:24.413Z,2.15
2022-11-24T18:14:54.933Z,1.13
2022-11-24T18:17:25.199Z,0.30
2022-11-24T18:19:55.414Z,0.30
2022-11-24T18:22:49.968Z,0.70
2022-11-24T18:25:16.055Z,0.93
2022-11-24T18:27:46.256Z,0.47
2022-11-24T18:30:16.981Z,0.88
2022-11-24T18:32:47.171Z,1.00
2022-11-24T18:35:17.426Z,0.63
2022-11-24T18:37:47.693Z,0.40
2022-11-24T18:40:18.070Z,1.80
2022-11-24T18:42:48.336Z,1.00
2022-11-24T18:45:18.606Z,0.68
2022-11-24T18:47:48.912Z,0.50
2022-11-24T18:50:19.445Z,0.38
2022-11-24T18:52:49.871Z,0.93
2022-11-24T18:55:20.192Z,0.50
2022-11-24T18:57:50.832Z,0.32
2022-11-24T19:00:22.137Z,0.50
2022-11-24T19:02:55.889Z,0.75
2022-11-24T19:05:26.137Z,0.55
2022-11-24T19:07:57.929Z,1.05
2022-11-24T19:10:28.266Z,0.90
2022-11-24T19:12:59.229Z,1.98
2022-11-24T19:15:29.700Z,1.10
2022-11-24T19:17:59.957Z,3.40
2022-11-24T19:20:30.591Z,2.60
2022-11-24T19:23:00.747Z,10.85
2022-11-24T19:25:31.062Z,1.10
2022-11-24T19:28:01.390Z,2.38
2022-11-24T19:30:31.727Z,1.02
2022-11-24T19:33:01.986Z,1.10
2022-11-24T19:35:32.151Z,2.70
2022-11-24T19:38:02.495Z,0.82
2022-11-24T19:40:32.751Z,0.45
2022-11-24T19:43:02.988Z,1.08
2022-11-24T19:45:34.368Z,0.55
2022-11-24T19:48:05.107Z,0.73
2022-11-24T19:50:35.271Z,1.40
2022-11-24T19:53:05.529Z,0.55
2022-11-24T19:55:35.781Z,0.50
2022-11-24T19:58:05.937Z,0.30
2022-11-24T20:00:36.238Z,1.85
2022-11-24T20:03:06.536Z,0.30
2022-11-24T20:05:36.748Z,0.85
2022-11-24T20:08:07.429Z,0.68
2022-11-24T20:10:37.805Z,0.52
2022-11-24T20:13:08.100Z,1.13
2022-11-24T20:15:38.387Z,0.43
2022-11-24T20:18:08.724Z,0.43
2022-11-24T20:20:38.931Z,0.43
2022-11-24T20:23:09.139Z,0.55
2022-11-24T20:25:42.401Z,0.55
2022-11-24T20:28:13.349Z,0.20
2022-11-24T20:30:43.582Z,0.85
2022-11-24T20:33:13.834Z,0.60
2022-11-24T20:35:44.067Z,0.60
2022-11-24T20:38:14.582Z,0.20
2022-11-24T20:40:44.787Z,1.13
2022-11-24T20:43:16.474Z,0.77
2022-11-24T20:45:46.797Z,2.72
2022-11-24T20:48:17.147Z,0.32
2022-11-24T20:50:51.342Z,2.97
2022-11-24T20:53:21.886Z,0.95
2022-11-24T20:55:52.210Z,0.63
2022-11-24T20:58:22.518Z,1.55
2022-11-24T21:00:52.857Z,1.20
2022-11-24T21:03:23.083Z,1.50
2022-11-24T21:05:57.925Z,0.35
2022-11-24T21:08:35.909Z,2.67
2022-11-24T21:11:07.142Z,2.03
2022-11-24T21:13:38.497Z,0.65
2022-11-24T21:16:22.232Z,1.38
2022-11-24T21:18:55.013Z,0.77
2022-11-24T21:21:26.865Z,1.63
2022-11-24T21:23:57.125Z,0.75
2022-11-24T21:26:27.397Z,3.03
2022-11-24T21:28:58.518Z,3.10
2022-11-24T21:31:28.806Z,1.80
2022-11-24T21:33:59.070Z,0.80
2022-11-24T21:36:29.489Z,2.90
2022-11-24T21:39:01.651Z,1.15
2022-11-24T21:41:34.373Z,0.52
2022-11-24T21:44:04.929Z,1.08
2022-11-24T21:46:43.558Z,1.98
2022-11-24T21:49:16.155Z,2.08
2022-11-24T21:51:46.450Z,2.03
2022-11-24T21:54:16.671Z,0.30
2022-11-24T21:56:46.935Z,1.70
2022-11-24T21:59:17.245Z,0.60
2022-11-24T22:01:47.528Z,0.30
2022-11-24T22:04:17.910Z,1.30
2022-11-24T22:06:48.159Z,0.20
2022-11-24T22:09:18.676Z,0.40
2022-11-24T22:11:53.775Z,1.08
2022-11-24T22:14:24.198Z,0.70
2022-11-24T22:16:54.426Z,1.85
2022-11-24T22:19:24.703Z,4.18
2022-11-24T22:21:54.910Z,0.65
2022-11-24T22:24:27.433Z,0.95
2022-11-24T22:26:57.796Z,4.00
2022-11-24T22:29:28.073Z,1.83
2022-11-24T22:31:59.280Z,1.85
2022-11-24T22:34:29.505Z,2.33
2022-11-24T22:36:59.752Z,2.10
2022-11-24T22:39:29.909Z,1.80
2022-11-24T22:42:00.139Z,1.92
2022-11-24T22:44:30.761Z,1.52
2022-11-24T22:47:01.679Z,2.05
2022-11-24T22:49:32.277Z,2.70
2022-11-24T22:52:02.478Z,2.47
2022-11-24T22:54:32.927Z,2.20
2022-11-24T22:57:04.629Z,0.80
2022-11-24T22:59:35.336Z,1.00
2022-11-24T23:02:05.859Z,2.38
2022-11-24T23:04:36.485Z,1.83
2022-11-24T23:07:06.941Z,2.85
2022-11-24T23:09:37.199Z,3.67
2022-11-24T23:12:07.741Z,2.45
2022-11-24T23:14:38.172Z,1.85
2022-11-24T23:17:08.711Z,1.02
2022-11-24T23:19:39.228Z,5.60
2022-11-24T23:22:09.664Z,4.90
2022-11-24T23:24:40.106Z,8.10
2022-11-24T23:27:10.312Z,1.52
2022-11-24T23:29:41.619Z,4.78
2022-11-24T23:32:11.883Z,3.60
2022-11-24T23:34:42.310Z,6.93
2022-11-24T23:37:12.531Z,2.67
2022-11-24T23:39:42.800Z,3.17
2022-11-24T23:42:12.991Z,2.65
2022-11-24T23:44:43.228Z,1.50
2022-11-24T23:47:13.522Z,3.47
2022-11-24T23:49:43.826Z,1.58
2022-11-24T23:52:14.075Z,0.63
2022-11-24T23:54:44.339Z,2.50
2022-11-24T23:57:14.546Z,4.03
2022-11-24T23:59:44.861Z,0.57
